Portada
METAR-TAF:

METAR-TAF

Aeroports :

Morris Municipal Airport (James R. Washburn Field)

Morris, Illinois, Estats Units d'Amèrica

latitud: 41-25-31N, longitud: 088-25-07W, altitud: 178 m

Observació

L'informe es va fer fa 20 minuts, a les 06:35 UTC
Vent 8 kt del Nord-Oest
Temperatura 15°C
Humitat 88%
Pressió 1015 hPa
Visibilitat: 16.1 km
Cel cobert a una alçada de 2000 ft

METAR: KC09 260635Z AUTO 31008KT 10SM OVC020 15/13 A2998 RMK AO2 T01500132

Hora: 01:55 (06:55 UTC)


TAF: manca

Observacions i pronòstics meteorològics de més de 4000 aeroports (METAR i TAF).

Les estacions disponibles són els punts grocs i vermells al mapa.

Posi el ratolí al punt desitjat per veure el nom de l'estació.

Feu clic per veure les observacions i els pronòstics meteorològics.

Per canviar el mapa: feu clic els botons verds amb una creu de color negre per apropar; al botó verd amb un guió per allunyar la imatge; o en les fletxes verdes per a mapes adjacents.


METAR-TAF: